sensor_id;sensor_type;location;lat;lon;timestamp;temperature;humidity
11214;DHT22;5664;48.606;13.456;2023-10-08T00:01:43;20.10;90.40
11214;DHT22;5664;48.606;13.456;2023-10-08T00:04:09;20.10;90.90
11214;DHT22;5664;48.606;13.456;2023-10-08T00:06:44;20.10;91.00
11214;DHT22;5664;48.606;13.456;2023-10-08T00:09:10;20.10;90.80
11214;DHT22;5664;48.606;13.456;2023-10-08T00:11:39;20.10;90.90
11214;DHT22;5664;48.606;13.456;2023-10-08T00:14:05;20.10;90.60
11214;DHT22;5664;48.606;13.456;2023-10-08T00:16:35;20.10;90.80
11214;DHT22;5664;48.606;13.456;2023-10-08T00:19:04;20.10;90.90
11214;DHT22;5664;48.606;13.456;2023-10-08T00:21:33;20.10;90.90
11214;DHT22;5664;48.606;13.456;2023-10-08T00:24:01;20.10;90.80
11214;DHT22;5664;48.606;13.456;2023-10-08T00:26:31;20.10;90.80
11214;DHT22;5664;48.606;13.456;2023-10-08T00:28:57;20.10;90.40
11214;DHT22;5664;48.606;13.456;2023-10-08T00:31:24;20.10;90.70
11214;DHT22;5664;48.606;13.456;2023-10-08T00:34:02;20.10;90.70
11214;DHT22;5664;48.606;13.456;2023-10-08T00:36:30;20.10;90.80
11214;DHT22;5664;48.606;13.456;2023-10-08T00:38:55;20.00;90.60
11214;DHT22;5664;48.606;13.456;2023-10-08T00:41:25;20.00;90.60
11214;DHT22;5664;48.606;13.456;2023-10-08T00:43:56;20.00;90.40
11214;DHT22;5664;48.606;13.456;2023-10-08T00:46:22;20.00;90.40
11214;DHT22;5664;48.606;13.456;2023-10-08T00:48:50;20.00;90.40
11214;DHT22;5664;48.606;13.456;2023-10-08T00:51:19;20.00;90.30
11214;DHT22;5664;48.606;13.456;2023-10-08T00:54:09;20.00;90.30
11214;DHT22;5664;48.606;13.456;2023-10-08T00:56:34;20.00;90.30
11214;DHT22;5664;48.606;13.456;2023-10-08T00:59:21;20.00;90.20
11214;DHT22;5664;48.606;13.456;2023-10-08T01:01:49;20.00;90.30
11214;DHT22;5664;48.606;13.456;2023-10-08T01:04:17;20.00;90.20
11214;DHT22;5664;48.606;13.456;2023-10-08T01:06:44;20.00;90.20
11214;DHT22;5664;48.606;13.456;2023-10-08T01:09:10;20.00;90.40
11214;DHT22;5664;48.606;13.456;2023-10-08T01:12:06;20.00;90.10
11214;DHT22;5664;48.606;13.456;2023-10-08T01:14:34;20.00;90.20
11214;DHT22;5664;48.606;13.456;2023-10-08T01:16:59;20.00;90.30
11214;DHT22;5664;48.606;13.456;2023-10-08T01:19:25;19.90;90.10
11214;DHT22;5664;48.606;13.456;2023-10-08T01:21:52;19.90;90.20
11214;DHT22;5664;48.606;13.456;2023-10-08T01:24:17;19.90;90.00
11214;DHT22;5664;48.606;13.456;2023-10-08T01:26:45;19.90;90.10
11214;DHT22;5664;48.606;13.456;2023-10-08T01:29:11;19.90;90.20
11214;DHT22;5664;48.606;13.456;2023-10-08T01:31:45;19.90;90.20
11214;DHT22;5664;48.606;13.456;2023-10-08T01:34:11;19.90;90.00
11214;DHT22;5664;48.606;13.456;2023-10-08T01:36:41;19.90;90.20
11214;DHT22;5664;48.606;13.456;2023-10-08T01:39:10;19.90;90.20
11214;DHT22;5664;48.606;13.456;2023-10-08T01:41:42;19.90;90.10
11214;DHT22;5664;48.606;13.456;2023-10-08T01:44:07;19.90;90.20
11214;DHT22;5664;48.606;13.456;2023-10-08T01:46:33;19.90;90.20
11214;DHT22;5664;48.606;13.456;2023-10-08T01:49:00;19.70;90.20
11214;DHT22;5664;48.606;13.456;2023-10-08T01:51:29;19.90;90.20
11214;DHT22;5664;48.606;13.456;2023-10-08T01:54:02;19.90;90.30
11214;DHT22;5664;48.606;13.456;2023-10-08T01:56:29;19.90;90.10
11214;DHT22;5664;48.606;13.456;2023-10-08T01:58:55;19.90;90.20
11214;DHT22;5664;48.606;13.456;2023-10-08T02:01:21;19.80;90.20
11214;DHT22;5664;48.606;13.456;2023-10-08T02:03:46;19.80;90.20
11214;DHT22;5664;48.606;13.456;2023-10-08T02:06:12;19.80;90.20
11214;DHT22;5664;48.606;13.456;2023-10-08T02:08:38;19.80;90.20
11214;DHT22;5664;48.606;13.456;2023-10-08T02:11:03;19.80;90.20
11214;DHT22;5664;48.606;13.456;2023-10-08T02:13:29;19.80;90.20
11214;DHT22;5664;48.606;13.456;2023-10-08T02:15:55;19.80;90.10
11214;DHT22;5664;48.606;13.456;2023-10-08T02:18:21;19.80;90.10
11214;DHT22;5664;48.606;13.456;2023-10-08T02:20:48;19.80;90.20
11214;DHT22;5664;48.606;13.456;2023-10-08T02:23:14;19.80;90.10
11214;DHT22;5664;48.606;13.456;2023-10-08T02:25:40;19.80;90.20
11214;DHT22;5664;48.606;13.456;2023-10-08T02:28:06;19.80;90.10
11214;DHT22;5664;48.606;13.456;2023-10-08T02:30:34;19.80;90.10
11214;DHT22;5664;48.606;13.456;2023-10-08T02:32:59;19.80;90.10
11214;DHT22;5664;48.606;13.456;2023-10-08T02:35:25;19.80;90.20
11214;DHT22;5664;48.606;13.456;2023-10-08T02:37:51;19.70;90.00
11214;DHT22;5664;48.606;13.456;2023-10-08T02:40:17;19.80;90.10
11214;DHT22;5664;48.606;13.456;2023-10-08T02:42:52;19.80;90.00
11214;DHT22;5664;48.606;13.456;2023-10-08T02:45:26;19.80;90.20
11214;DHT22;5664;48.606;13.456;2023-10-08T02:47:52;19.10;90.80
11214;DHT22;5664;48.606;13.456;2023-10-08T02:50:18;19.80;90.70
11214;DHT22;5664;48.606;13.456;2023-10-08T02:52:44;19.70;90.60
11214;DHT22;5664;48.606;13.456;2023-10-08T02:55:12;19.70;90.40
11214;DHT22;5664;48.606;13.456;2023-10-08T02:57:53;19.80;90.50
11214;DHT22;5664;48.606;13.456;2023-10-08T03:00:19;19.70;90.60
11214;DHT22;5664;48.606;13.456;2023-10-08T03:02:45;19.70;90.60
11214;DHT22;5664;48.606;13.456;2023-10-08T03:05:11;19.70;90.50
11214;DHT22;5664;48.606;13.456;2023-10-08T03:07:38;19.70;90.50
11214;DHT22;5664;48.606;13.456;2023-10-08T03:10:05;19.60;90.00
11214;DHT22;5664;48.606;13.456;2023-10-08T03:12:34;19.70;90.40
11214;DHT22;5664;48.606;13.456;2023-10-08T03:15:00;19.70;90.20
11214;DHT22;5664;48.606;13.456;2023-10-08T03:17:42;19.70;90.30
11214;DHT22;5664;48.606;13.456;2023-10-08T03:20:14;19.70;90.20
11214;DHT22;5664;48.606;13.456;2023-10-08T03:23:06;19.70;90.20
11214;DHT22;5664;48.606;13.456;2023-10-08T03:25:37;19.70;90.10
11214;DHT22;5664;48.606;13.456;2023-10-08T03:28:07;19.70;90.10
11214;DHT22;5664;48.606;13.456;2023-10-08T03:30:34;19.30;90.10
11214;DHT22;5664;48.606;13.456;2023-10-08T03:33:19;19.70;90.20
11214;DHT22;5664;48.606;13.456;2023-10-08T03:35:49;19.60;89.90
11214;DHT22;5664;48.606;13.456;2023-10-08T03:38:21;19.70;90.10
11214;DHT22;5664;48.606;13.456;2023-10-08T03:40:56;19.70;90.10
11214;DHT22;5664;48.606;13.456;2023-10-08T03:43:31;19.60;89.60
11214;DHT22;5664;48.606;13.456;2023-10-08T03:46:09;19.60;89.70
11214;DHT22;5664;48.606;13.456;2023-10-08T03:48:41;19.60;90.00
11214;DHT22;5664;48.606;13.456;2023-10-08T03:51:09;19.70;89.90
11214;DHT22;5664;48.606;13.456;2023-10-08T03:53:39;19.60;89.90
11214;DHT22;5664;48.606;13.456;2023-10-08T03:56:26;19.60;89.90
11214;DHT22;5664;48.606;13.456;2023-10-08T03:58:55;19.60;89.80
11214;DHT22;5664;48.606;13.456;2023-10-08T04:01:21;19.60;90.00
11214;DHT22;5664;48.606;13.456;2023-10-08T04:03:49;19.60;90.10
11214;DHT22;5664;48.606;13.456;2023-10-08T04:06:17;19.60;90.00
11214;DHT22;5664;48.606;13.456;2023-10-08T04:08:48;19.60;90.00
11214;DHT22;5664;48.606;13.456;2023-10-08T04:11:32;19.60;90.00
11214;DHT22;5664;48.606;13.456;2023-10-08T04:14:04;19.70;90.10
11214;DHT22;5664;48.606;13.456;2023-10-08T04:16:31;19.60;90.10
11214;DHT22;5664;48.606;13.456;2023-10-08T04:18:56;19.60;90.10
11214;DHT22;5664;48.606;13.456;2023-10-08T04:21:22;19.60;90.00
11214;DHT22;5664;48.606;13.456;2023-10-08T04:23:52;19.60;91.70
11214;DHT22;5664;48.606;13.456;2023-10-08T04:26:18;19.50;91.60
11214;DHT22;5664;48.606;13.456;2023-10-08T04:28:55;19.60;90.10
11214;DHT22;5664;48.606;13.456;2023-10-08T04:31:23;19.50;90.00
11214;DHT22;5664;48.606;13.456;2023-10-08T04:34:02;19.50;90.10
11214;DHT22;5664;48.606;13.456;2023-10-08T04:36:34;19.50;90.00
11214;DHT22;5664;48.606;13.456;2023-10-08T04:39:04;19.50;90.20
11214;DHT22;5664;48.606;13.456;2023-10-08T04:41:41;19.50;90.20
11214;DHT22;5664;48.606;13.456;2023-10-08T04:44:10;19.50;90.00
11214;DHT22;5664;48.606;13.456;2023-10-08T04:46:43;19.50;90.10
11214;DHT22;5664;48.606;13.456;2023-10-08T04:49:15;19.50;90.10
11214;DHT22;5664;48.606;13.456;2023-10-08T04:51:56;19.50;90.10
11214;DHT22;5664;48.606;13.456;2023-10-08T04:54:31;19.50;90.20
11214;DHT22;5664;48.606;13.456;2023-10-08T04:56:59;19.50;91.50
11214;DHT22;5664;48.606;13.456;2023-10-08T04:59:27;19.50;90.00
11214;DHT22;5664;48.606;13.456;2023-10-08T05:02:01;19.50;90.10
11214;DHT22;5664;48.606;13.456;2023-10-08T05:04:49;19.50;90.00
11214;DHT22;5664;48.606;13.456;2023-10-08T05:07:21;19.50;90.00
11214;DHT22;5664;48.606;13.456;2023-10-08T05:09:47;19.50;90.00
11214;DHT22;5664;48.606;13.456;2023-10-08T05:12:28;19.40;90.10
11214;DHT22;5664;48.606;13.456;2023-10-08T05:15:18;19.50;90.00
11214;DHT22;5664;48.606;13.456;2023-10-08T05:17:58;19.40;90.10
11214;DHT22;5664;48.606;13.456;2023-10-08T05:20:34;19.40;90.20
11214;DHT22;5664;48.606;13.456;2023-10-08T05:23:23;19.40;90.00
11214;DHT22;5664;48.606;13.456;2023-10-08T05:25:49;19.40;90.20
11214;DHT22;5664;48.606;13.456;2023-10-08T05:28:34;19.40;90.20
11214;DHT22;5664;48.606;13.456;2023-10-08T05:31:10;19.40;90.20
11214;DHT22;5664;48.606;13.456;2023-10-08T05:33:39;19.40;90.00
11214;DHT22;5664;48.606;13.456;2023-10-08T05:36:43;19.40;90.20
11214;DHT22;5664;48.606;13.456;2023-10-08T05:39:27;19.40;90.10
11214;DHT22;5664;48.606;13.456;2023-10-08T05:42:08;19.40;90.00
11214;DHT22;5664;48.606;13.456;2023-10-08T05:44:57;19.40;90.00
11214;DHT22;5664;48.606;13.456;2023-10-08T05:47:31;19.40;90.00
11214;DHT22;5664;48.606;13.456;2023-10-08T05:49:57;19.40;90.00
11214;DHT22;5664;48.606;13.456;2023-10-08T05:52:41;19.40;89.80
11214;DHT22;5664;48.606;13.456;2023-10-08T05:55:19;19.40;90.10
11214;DHT22;5664;48.606;13.456;2023-10-08T05:57:59;19.50;89.60
11214;DHT22;5664;48.606;13.456;2023-10-08T06:00:43;19.50;89.50
11214;DHT22;5664;48.606;13.456;2023-10-08T06:03:15;19.60;89.10
11214;DHT22;5664;48.606;13.456;2023-10-08T06:06:00;19.60;89.00
11214;DHT22;5664;48.606;13.456;2023-10-08T06:08:48;19.60;90.10
11214;DHT22;5664;48.606;13.456;2023-10-08T06:11:17;19.40;90.40
11214;DHT22;5664;48.606;13.456;2023-10-08T06:13:56;19.30;90.90
11214;DHT22;5664;48.606;13.456;2023-10-08T06:16:25;19.10;88.20
11214;DHT22;5664;48.606;13.456;2023-10-08T06:19:07;18.90;87.90
11214;DHT22;5664;48.606;13.456;2023-10-08T06:21:35;18.90;90.00
11214;DHT22;5664;48.606;13.456;2023-10-08T06:24:02;18.80;91.50
11214;DHT22;5664;48.606;13.456;2023-10-08T06:26:35;18.70;91.90
11214;DHT22;5664;48.606;13.456;2023-10-08T06:29:03;18.60;92.30
11214;DHT22;5664;48.606;13.456;2023-10-08T06:31:44;18.60;90.90
11214;DHT22;5664;48.606;13.456;2023-10-08T06:34:16;18.50;92.10
11214;DHT22;5664;48.606;13.456;2023-10-08T06:36:41;18.50;93.10
11214;DHT22;5664;48.606;13.456;2023-10-08T06:39:07;18.40;93.10
11214;DHT22;5664;48.606;13.456;2023-10-08T06:41:37;18.40;93.50
11214;DHT22;5664;48.606;13.456;2023-10-08T06:44:02;18.60;93.60
11214;DHT22;5664;48.606;13.456;2023-10-08T06:46:28;18.70;93.20
11214;DHT22;5664;48.606;13.456;2023-10-08T06:49:01;18.80;92.70
11214;DHT22;5664;48.606;13.456;2023-10-08T06:51:27;19.00;88.10
11214;DHT22;5664;48.606;13.456;2023-10-08T06:53:55;19.10;87.20
11214;DHT22;5664;48.606;13.456;2023-10-08T06:56:21;19.20;92.40
11214;DHT22;5664;48.606;13.456;2023-10-08T06:58:49;19.30;92.50
11214;DHT22;5664;48.606;13.456;2023-10-08T07:01:18;19.30;92.40
11214;DHT22;5664;48.606;13.456;2023-10-08T07:03:46;19.30;92.30
11214;DHT22;5664;48.606;13.456;2023-10-08T07:06:14;19.40;92.40
11214;DHT22;5664;48.606;13.456;2023-10-08T07:08:51;19.40;92.30
11214;DHT22;5664;48.606;13.456;2023-10-08T07:11:20;19.30;92.10
11214;DHT22;5664;48.606;13.456;2023-10-08T07:13:45;19.40;92.40
11214;DHT22;5664;48.606;13.456;2023-10-08T07:16:11;19.40;92.30
11214;DHT22;5664;48.606;13.456;2023-10-08T07:18:37;19.40;92.50
11214;DHT22;5664;48.606;13.456;2023-10-08T07:21:03;19.40;92.40
11214;DHT22;5664;48.606;13.456;2023-10-08T07:23:30;19.50;92.60
11214;DHT22;5664;48.606;13.456;2023-10-08T07:26:00;19.50;92.50
11214;DHT22;5664;48.606;13.456;2023-10-08T07:28:38;19.50;92.50
11214;DHT22;5664;48.606;13.456;2023-10-08T07:31:16;19.40;92.00
11214;DHT22;5664;48.606;13.456;2023-10-08T07:33:42;19.50;92.50
11214;DHT22;5664;48.606;13.456;2023-10-08T07:36:14;19.60;92.60
11214;DHT22;5664;48.606;13.456;2023-10-08T07:38:43;19.50;92.20
11214;DHT22;5664;48.606;13.456;2023-10-08T07:41:09;19.60;92.50
11214;DHT22;5664;48.606;13.456;2023-10-08T07:43:38;19.60;92.60
11214;DHT22;5664;48.606;13.456;2023-10-08T07:46:03;19.60;92.60
11214;DHT22;5664;48.606;13.456;2023-10-08T07:48:29;19.60;92.60
11214;DHT22;5664;48.606;13.456;2023-10-08T07:50:57;19.60;92.50
11214;DHT22;5664;48.606;13.456;2023-10-08T07:53:23;19.60;92.50
11214;DHT22;5664;48.606;13.456;2023-10-08T07:55:50;19.60;92.30
11214;DHT22;5664;48.606;13.456;2023-10-08T07:58:16;19.60;92.00
11214;DHT22;5664;48.606;13.456;2023-10-08T08:00:42;19.70;92.10
11214;DHT22;5664;48.606;13.456;2023-10-08T08:03:20;19.70;92.00
11214;DHT22;5664;48.606;13.456;2023-10-08T08:05:46;19.70;91.70
11214;DHT22;5664;48.606;13.456;2023-10-08T08:08:12;19.80;92.10
11214;DHT22;5664;48.606;13.456;2023-10-08T08:10:43;19.80;92.40
11214;DHT22;5664;48.606;13.456;2023-10-08T08:13:09;19.80;92.30
11214;DHT22;5664;48.606;13.456;2023-10-08T08:15:34;19.80;92.20
11214;DHT22;5664;48.606;13.456;2023-10-08T08:18:07;19.90;92.30
11214;DHT22;5664;48.606;13.456;2023-10-08T08:20:34;19.90;92.10
11214;DHT22;5664;48.606;13.456;2023-10-08T08:23:04;20.10;92.20
11214;DHT22;5664;48.606;13.456;2023-10-08T08:25:41;20.00;92.10
11214;DHT22;5664;48.606;13.456;2023-10-08T08:28:25;20.00;91.20
11214;DHT22;5664;48.606;13.456;2023-10-08T08:30:54;20.00;91.40
11214;DHT22;5664;48.606;13.456;2023-10-08T08:33:20;20.00;91.90
11214;DHT22;5664;48.606;13.456;2023-10-08T08:36:01;20.00;92.40
11214;DHT22;5664;48.606;13.456;2023-10-08T08:38:30;20.10;92.50
11214;DHT22;5664;48.606;13.456;2023-10-08T08:41:06;20.20;92.90
11214;DHT22;5664;48.606;13.456;2023-10-08T08:43:35;20.20;92.60
11214;DHT22;5664;48.606;13.456;2023-10-08T08:46:04;20.30;92.90
11214;DHT22;5664;48.606;13.456;2023-10-08T08:48:33;20.40;92.70
11214;DHT22;5664;48.606;13.456;2023-10-08T08:50:59;20.40;92.80
11214;DHT22;5664;48.606;13.456;2023-10-08T08:53:24;20.40;92.80
11214;DHT22;5664;48.606;13.456;2023-10-08T08:55:51;20.50;92.90
11214;DHT22;5664;48.606;13.456;2023-10-08T08:58:18;20.50;92.80
11214;DHT22;5664;48.606;13.456;2023-10-08T09:00:45;20.60;92.90
11214;DHT22;5664;48.606;13.456;2023-10-08T09:03:12;20.60;92.80
11214;DHT22;5664;48.606;13.456;2023-10-08T09:05:41;20.70;92.90
11214;DHT22;5664;48.606;13.456;2023-10-08T09:08:07;20.70;92.70
11214;DHT22;5664;48.606;13.456;2023-10-08T09:10:35;20.70;92.80
11214;DHT22;5664;48.606;13.456;2023-10-08T09:13:18;20.90;92.80
11214;DHT22;5664;48.606;13.456;2023-10-08T09:15:46;20.80;92.70
11214;DHT22;5664;48.606;13.456;2023-10-08T09:18:12;20.90;92.80
11214;DHT22;5664;48.606;13.456;2023-10-08T09:20:39;20.90;92.70
11214;DHT22;5664;48.606;13.456;2023-10-08T09:23:09;20.90;92.70
11214;DHT22;5664;48.606;13.456;2023-10-08T09:25:38;20.90;92.60
11214;DHT22;5664;48.606;13.456;2023-10-08T09:28:05;21.00;92.70
11214;DHT22;5664;48.606;13.456;2023-10-08T09:30:34;21.00;92.70
11214;DHT22;5664;48.606;13.456;2023-10-08T09:33:07;21.00;92.70
11214;DHT22;5664;48.606;13.456;2023-10-08T09:35:33;21.00;92.50
11214;DHT22;5664;48.606;13.456;2023-10-08T09:37:59;21.00;92.70
11214;DHT22;5664;48.606;13.456;2023-10-08T09:40:25;21.00;92.60
11214;DHT22;5664;48.606;13.456;2023-10-08T09:42:51;21.00;92.70
11214;DHT22;5664;48.606;13.456;2023-10-08T09:45:16;21.00;93.30
11214;DHT22;5664;48.606;13.456;2023-10-08T09:47:43;21.10;92.60
11214;DHT22;5664;48.606;13.456;2023-10-08T09:50:14;21.10;92.50
11214;DHT22;5664;48.606;13.456;2023-10-08T09:52:56;21.10;92.50
11214;DHT22;5664;48.606;13.456;2023-10-08T09:55:25;21.20;92.30
11214;DHT22;5664;48.606;13.456;2023-10-08T09:57:51;21.10;92.40
11214;DHT22;5664;48.606;13.456;2023-10-08T10:00:20;21.10;92.50
11214;DHT22;5664;48.606;13.456;2023-10-08T10:02:59;21.10;92.70
11214;DHT22;5664;48.606;13.456;2023-10-08T10:05:32;21.10;92.20
11214;DHT22;5664;48.606;13.456;2023-10-08T10:08:02;21.10;92.20
11214;DHT22;5664;48.606;13.456;2023-10-08T10:10:31;21.10;92.40
11214;DHT22;5664;48.606;13.456;2023-10-08T10:13:00;21.10;92.40
11214;DHT22;5664;48.606;13.456;2023-10-08T10:15:27;21.10;92.30
11214;DHT22;5664;48.606;13.456;2023-10-08T10:17:58;21.10;92.40
11214;DHT22;5664;48.606;13.456;2023-10-08T10:20:24;21.10;92.40
11214;DHT22;5664;48.606;13.456;2023-10-08T10:22:49;21.10;92.50
11214;DHT22;5664;48.606;13.456;2023-10-08T10:25:16;21.10;92.50
11214;DHT22;5664;48.606;13.456;2023-10-08T10:30:16;21.10;92.40
11214;DHT22;5664;48.606;13.456;2023-10-08T10:32:44;21.10;92.50
11214;DHT22;5664;48.606;13.456;2023-10-08T10:35:14;21.10;92.50
11214;DHT22;5664;48.606;13.456;2023-10-08T10:37:43;21.10;92.60
11214;DHT22;5664;48.606;13.456;2023-10-08T10:40:23;21.10;92.60
11214;DHT22;5664;48.606;13.456;2023-10-08T10:43:06;21.20;92.60
11214;DHT22;5664;48.606;13.456;2023-10-08T10:45:32;21.10;92.70
11214;DHT22;5664;48.606;13.456;2023-10-08T10:48:02;21.20;92.70
11214;DHT22;5664;48.606;13.456;2023-10-08T10:50:38;21.20;92.80
11214;DHT22;5664;48.606;13.456;2023-10-08T10:53:14;21.20;92.90
11214;DHT22;5664;48.606;13.456;2023-10-08T10:55:40;21.20;92.80
11214;DHT22;5664;48.606;13.456;2023-10-08T10:58:13;21.20;92.70
11214;DHT22;5664;48.606;13.456;2023-10-08T11:00:41;21.20;92.80
11214;DHT22;5664;48.606;13.456;2023-10-08T11:03:07;21.20;92.70
11214;DHT22;5664;48.606;13.456;2023-10-08T11:05:41;21.20;92.60
11214;DHT22;5664;48.606;13.456;2023-10-08T11:08:13;21.20;92.70
11214;DHT22;5664;48.606;13.456;2023-10-08T11:10:41;21.20;92.80
11214;DHT22;5664;48.606;13.456;2023-10-08T11:13:12;21.20;92.70
11214;DHT22;5664;48.606;13.456;2023-10-08T11:15:40;21.20;92.60
11214;DHT22;5664;48.606;13.456;2023-10-08T11:18:09;21.20;92.70
11214;DHT22;5664;48.606;13.456;2023-10-08T11:20:35;21.20;92.40
11214;DHT22;5664;48.606;13.456;2023-10-08T11:23:06;21.20;92.40
11214;DHT22;5664;48.606;13.456;2023-10-08T11:25:53;21.20;92.50
11214;DHT22;5664;48.606;13.456;2023-10-08T11:28:19;21.20;92.30
11214;DHT22;5664;48.606;13.456;2023-10-08T11:30:44;21.20;92.50
11214;DHT22;5664;48.606;13.456;2023-10-08T11:33:12;21.20;92.50
11214;DHT22;5664;48.606;13.456;2023-10-08T11:35:56;21.20;93.20
11214;DHT22;5664;48.606;13.456;2023-10-08T11:38:24;21.30;93.60
11214;DHT22;5664;48.606;13.456;2023-10-08T11:40:54;21.30;93.70
11214;DHT22;5664;48.606;13.456;2023-10-08T11:43:22;21.30;93.20
11214;DHT22;5664;48.606;13.456;2023-10-08T11:45:48;21.30;93.70
11214;DHT22;5664;48.606;13.456;2023-10-08T11:48:14;21.40;93.70
11214;DHT22;5664;48.606;13.456;2023-10-08T11:50:42;21.50;93.70
11214;DHT22;5664;48.606;13.456;2023-10-08T11:53:08;21.50;93.70
11214;DHT22;5664;48.606;13.456;2023-10-08T11:55:36;21.60;93.70
11214;DHT22;5664;48.606;13.456;2023-10-08T11:58:06;21.60;93.60
11214;DHT22;5664;48.606;13.456;2023-10-08T12:00:41;21.60;93.60
11214;DHT22;5664;48.606;13.456;2023-10-08T12:03:16;21.60;93.50
11214;DHT22;5664;48.606;13.456;2023-10-08T12:05:44;21.60;93.50
11214;DHT22;5664;48.606;13.456;2023-10-08T12:08:15;21.70;93.60
11214;DHT22;5664;48.606;13.456;2023-10-08T12:10:44;21.70;93.40
11214;DHT22;5664;48.606;13.456;2023-10-08T12:13:13;21.70;93.40
11214;DHT22;5664;48.606;13.456;2023-10-08T12:15:41;21.70;93.70
11214;DHT22;5664;48.606;13.456;2023-10-08T12:18:18;21.80;93.70
11214;DHT22;5664;48.606;13.456;2023-10-08T12:20:50;21.90;93.30
11214;DHT22;5664;48.606;13.456;2023-10-08T12:23:15;22.00;93.80
11214;DHT22;5664;48.606;13.456;2023-10-08T12:25:53;22.00;93.60
11214;DHT22;5664;48.606;13.456;2023-10-08T12:28:24;22.10;93.70
11214;DHT22;5664;48.606;13.456;2023-10-08T12:30:50;22.20;93.70
11214;DHT22;5664;48.606;13.456;2023-10-08T12:33:18;22.30;94.10
11214;DHT22;5664;48.606;13.456;2023-10-08T12:35:45;22.30;93.80
11214;DHT22;5664;48.606;13.456;2023-10-08T12:38:12;22.40;93.90
11214;DHT22;5664;48.606;13.456;2023-10-08T12:40:42;22.70;94.10
11214;DHT22;5664;48.606;13.456;2023-10-08T12:43:12;22.60;93.60
11214;DHT22;5664;48.606;13.456;2023-10-08T12:45:38;22.70;93.90
11214;DHT22;5664;48.606;13.456;2023-10-08T12:48:03;22.80;93.80
11214;DHT22;5664;48.606;13.456;2023-10-08T12:50:30;23.00;93.80
11214;DHT22;5664;48.606;13.456;2023-10-08T12:53:04;23.00;94.90
11214;DHT22;5664;48.606;13.456;2023-10-08T12:55:30;23.40;95.80
11214;DHT22;5664;48.606;13.456;2023-10-08T12:57:56;23.20;96.00
11214;DHT22;5664;48.606;13.456;2023-10-08T13:00:33;23.20;80.10
11214;DHT22;5664;48.606;13.456;2023-10-08T13:02:59;23.30;78.80
11214;DHT22;5664;48.606;13.456;2023-10-08T13:05:26;23.30;79.10
11214;DHT22;5664;48.606;13.456;2023-10-08T13:07:56;23.30;79.30
11214;DHT22;5664;48.606;13.456;2023-10-08T13:10:22;23.30;77.50
11214;DHT22;5664;48.606;13.456;2023-10-08T13:12:48;23.30;77.40
11214;DHT22;5664;48.606;13.456;2023-10-08T13:15:14;23.30;76.60
11214;DHT22;5664;48.606;13.456;2023-10-08T13:17:39;23.30;75.90
11214;DHT22;5664;48.606;13.456;2023-10-08T13:20:13;23.30;73.90
11214;DHT22;5664;48.606;13.456;2023-10-08T13:22:40;23.30;73.60
11214;DHT22;5664;48.606;13.456;2023-10-08T13:25:05;23.30;73.70
11214;DHT22;5664;48.606;13.456;2023-10-08T13:27:31;23.30;73.70
11214;DHT22;5664;48.606;13.456;2023-10-08T13:29:57;23.30;73.70
11214;DHT22;5664;48.606;13.456;2023-10-08T13:32:24;23.20;73.90
11214;DHT22;5664;48.606;13.456;2023-10-08T13:34:49;23.20;73.90
11214;DHT22;5664;48.606;13.456;2023-10-08T13:37:15;23.20;73.80
11214;DHT22;5664;48.606;13.456;2023-10-08T13:39:41;23.20;74.50
11214;DHT22;5664;48.606;13.456;2023-10-08T13:42:06;23.20;73.80
11214;DHT22;5664;48.606;13.456;2023-10-08T13:44:32;23.10;73.30
11214;DHT22;5664;48.606;13.456;2023-10-08T13:46:58;22.90;71.90
11214;DHT22;5664;48.606;13.456;2023-10-08T13:49:25;22.80;71.80
11214;DHT22;5664;48.606;13.456;2023-10-08T13:51:52;22.60;71.90
11214;DHT22;5664;48.606;13.456;2023-10-08T13:54:21;22.50;72.30
11214;DHT22;5664;48.606;13.456;2023-10-08T13:56:47;22.40;72.90
11214;DHT22;5664;48.606;13.456;2023-10-08T13:59:15;22.40;73.10
11214;DHT22;5664;48.606;13.456;2023-10-08T14:01:42;22.30;73.40
11214;DHT22;5664;48.606;13.456;2023-10-08T14:04:16;22.20;73.40
11214;DHT22;5664;48.606;13.456;2023-10-08T14:06:45;22.20;73.90
11214;DHT22;5664;48.606;13.456;2023-10-08T14:09:18;22.10;74.30
11214;DHT22;5664;48.606;13.456;2023-10-08T14:11:50;22.10;74.50
11214;DHT22;5664;48.606;13.456;2023-10-08T14:14:18;22.00;74.80
11214;DHT22;5664;48.606;13.456;2023-10-08T14:16:45;22.00;75.10
11214;DHT22;5664;48.606;13.456;2023-10-08T14:19:17;22.00;75.30
11214;DHT22;5664;48.606;13.456;2023-10-08T14:21:43;21.90;75.30
11214;DHT22;5664;48.606;13.456;2023-10-08T14:24:16;21.90;75.20
11214;DHT22;5664;48.606;13.456;2023-10-08T14:26:41;21.90;75.50
11214;DHT22;5664;48.606;13.456;2023-10-08T14:29:08;21.90;76.30
11214;DHT22;5664;48.606;13.456;2023-10-08T14:31:36;22.00;76.70
11214;DHT22;5664;48.606;13.456;2023-10-08T14:34:06;22.10;76.80
11214;DHT22;5664;48.606;13.456;2023-10-08T14:39:29;22.20;76.50
11214;DHT22;5664;48.606;13.456;2023-10-08T14:42:12;22.30;76.40
11214;DHT22;5664;48.606;13.456;2023-10-08T14:44:57;22.30;76.30
11214;DHT22;5664;48.606;13.456;2023-10-08T14:47:22;22.30;76.20
11214;DHT22;5664;48.606;13.456;2023-10-08T14:49:48;22.40;76.20
11214;DHT22;5664;48.606;13.456;2023-10-08T14:52:13;22.40;76.30
11214;DHT22;5664;48.606;13.456;2023-10-08T14:54:39;22.40;76.10
11214;DHT22;5664;48.606;13.456;2023-10-08T14:57:07;22.40;76.10
11214;DHT22;5664;48.606;13.456;2023-10-08T14:59:32;22.40;76.10
11214;DHT22;5664;48.606;13.456;2023-10-08T15:01:58;22.40;76.00
11214;DHT22;5664;48.606;13.456;2023-10-08T15:04:24;22.40;76.00
11214;DHT22;5664;48.606;13.456;2023-10-08T15:06:51;22.40;76.10
11214;DHT22;5664;48.606;13.456;2023-10-08T15:09:17;22.40;76.00
11214;DHT22;5664;48.606;13.456;2023-10-08T15:11:51;22.40;76.00
11214;DHT22;5664;48.606;13.456;2023-10-08T15:14:21;22.40;76.00
11214;DHT22;5664;48.606;13.456;2023-10-08T15:16:48;22.40;76.00
11214;DHT22;5664;48.606;13.456;2023-10-08T15:19:20;22.40;75.90
11214;DHT22;5664;48.606;13.456;2023-10-08T15:21:47;22.40;76.00
11214;DHT22;5664;48.606;13.456;2023-10-08T15:24:22;22.40;76.00
11214;DHT22;5664;48.606;13.456;2023-10-08T15:26:48;22.40;76.80
11214;DHT22;5664;48.606;13.456;2023-10-08T15:29:14;22.40;76.00
11214;DHT22;5664;48.606;13.456;2023-10-08T15:31:39;22.40;76.00
11214;DHT22;5664;48.606;13.456;2023-10-08T15:34:06;22.40;76.00
11214;DHT22;5664;48.606;13.456;2023-10-08T15:36:31;22.40;76.10
11214;DHT22;5664;48.606;13.456;2023-10-08T15:38:57;22.40;76.10
11214;DHT22;5664;48.606;13.456;2023-10-08T15:41:23;22.40;76.00
11214;DHT22;5664;48.606;13.456;2023-10-08T15:43:52;22.40;76.10
11214;DHT22;5664;48.606;13.456;2023-10-08T15:46:19;22.40;76.00
11214;DHT22;5664;48.606;13.456;2023-10-08T15:48:45;22.40;76.10
11214;DHT22;5664;48.606;13.456;2023-10-08T15:51:13;22.40;76.10
11214;DHT22;5664;48.606;13.456;2023-10-08T15:53:38;22.40;76.10